sensor_id;sensor_type;location;lat;lon;timestamp;P1;durP1;ratioP1;P2;durP2;ratioP2
51560;SDS011;37654;51.262;17.058;2023-04-25T00:01:14;1.63;;;0.50;;
51560;SDS011;37654;51.262;17.058;2023-04-25T00:03:40;3.47;;;0.75;;
51560;SDS011;37654;51.262;17.058;2023-04-25T00:06:05;0.93;;;0.50;;
51560;SDS011;37654;51.262;17.058;2023-04-25T00:08:31;1.17;;;0.60;;
51560;SDS011;37654;51.262;17.058;2023-04-25T00:10:57;4.03;;;0.60;;
51560;SDS011;37654;51.262;17.058;2023-04-25T00:13:23;1.58;;;0.70;;
51560;SDS011;37654;51.262;17.058;2023-04-25T00:15:50;0.75;;;0.70;;
51560;SDS011;37654;51.262;17.058;2023-04-25T00:18:18;1.13;;;0.70;;
51560;SDS011;37654;51.262;17.058;2023-04-25T00:20:44;2.75;;;0.80;;
51560;SDS011;37654;51.262;17.058;2023-04-25T00:23:12;3.50;;;0.60;;
51560;SDS011;37654;51.262;17.058;2023-04-25T00:25:43;7.00;;;1.05;;
51560;SDS011;37654;51.262;17.058;2023-04-25T00:28:09;1.52;;;0.50;;
51560;SDS011;37654;51.262;17.058;2023-04-25T00:30:35;1.17;;;0.52;;
51560;SDS011;37654;51.262;17.058;2023-04-25T00:33:01;0.80;;;0.47;;
51560;SDS011;37654;51.262;17.058;2023-04-25T00:35:26;2.38;;;0.65;;
51560;SDS011;37654;51.262;17.058;2023-04-25T00:37:52;0.77;;;0.60;;
51560;SDS011;37654;51.262;17.058;2023-04-25T00:40:17;2.55;;;1.63;;
51560;SDS011;37654;51.262;17.058;2023-04-25T00:42:42;2.72;;;1.63;;
51560;SDS011;37654;51.262;17.058;2023-04-25T00:45:09;4.50;;;0.73;;
51560;SDS011;37654;51.262;17.058;2023-04-25T00:47:39;3.33;;;0.60;;
51560;SDS011;37654;51.262;17.058;2023-04-25T00:50:05;10.48;;;0.98;;
51560;SDS011;37654;51.262;17.058;2023-04-25T00:52:31;3.67;;;0.70;;
51560;SDS011;37654;51.262;17.058;2023-04-25T00:54:57;6.10;;;0.68;;
51560;SDS011;37654;51.262;17.058;2023-04-25T00:57:23;0.60;;;0.60;;
51560;SDS011;37654;51.262;17.058;2023-04-25T00:59:48;1.17;;;0.75;;
51560;SDS011;37654;51.262;17.058;2023-04-25T01:02:16;3.72;;;0.70;;
51560;SDS011;37654;51.262;17.058;2023-04-25T01:04:42;2.28;;;0.68;;
51560;SDS011;37654;51.262;17.058;2023-04-25T01:07:07;1.75;;;0.80;;
51560;SDS011;37654;51.262;17.058;2023-04-25T01:09:35;1.98;;;0.55;;
51560;SDS011;37654;51.262;17.058;2023-04-25T01:12:00;4.13;;;0.70;;
51560;SDS011;37654;51.262;17.058;2023-04-25T01:14:26;2.08;;;0.50;;
51560;SDS011;37654;51.262;17.058;2023-04-25T01:16:52;1.67;;;0.80;;
51560;SDS011;37654;51.262;17.058;2023-04-25T01:19:20;1.75;;;0.50;;
51560;SDS011;37654;51.262;17.058;2023-04-25T01:21:46;1.85;;;0.70;;
51560;SDS011;37654;51.262;17.058;2023-04-25T01:24:12;1.27;;;0.43;;
51560;SDS011;37654;51.262;17.058;2023-04-25T01:26:37;0.50;;;0.50;;
51560;SDS011;37654;51.262;17.058;2023-04-25T01:29:04;1.23;;;0.60;;
51560;SDS011;37654;51.262;17.058;2023-04-25T01:31:31;2.35;;;1.10;;
51560;SDS011;37654;51.262;17.058;2023-04-25T01:33:57;1.33;;;0.50;;
51560;SDS011;37654;51.262;17.058;2023-04-25T01:36:23;2.38;;;0.60;;
51560;SDS011;37654;51.262;17.058;2023-04-25T01:38:48;1.55;;;0.70;;
51560;SDS011;37654;51.262;17.058;2023-04-25T01:41:14;1.30;;;0.80;;
51560;SDS011;37654;51.262;17.058;2023-04-25T01:43:40;0.95;;;0.77;;
51560;SDS011;37654;51.262;17.058;2023-04-25T01:46:05;1.33;;;0.90;;
51560;SDS011;37654;51.262;17.058;2023-04-25T01:48:31;1.77;;;0.80;;
51560;SDS011;37654;51.262;17.058;2023-04-25T01:50:57;2.03;;;1.00;;
51560;SDS011;37654;51.262;17.058;2023-04-25T01:53:23;2.05;;;0.88;;
51560;SDS011;37654;51.262;17.058;2023-04-25T01:55:48;1.45;;;0.95;;
51560;SDS011;37654;51.262;17.058;2023-04-25T01:58:14;4.20;;;1.10;;
51560;SDS011;37654;51.262;17.058;2023-04-25T02:00:40;4.03;;;1.10;;
51560;SDS011;37654;51.262;17.058;2023-04-25T02:03:06;2.40;;;1.08;;
51560;SDS011;37654;51.262;17.058;2023-04-25T02:05:35;4.97;;;1.83;;
51560;SDS011;37654;51.262;17.058;2023-04-25T02:08:02;2.53;;;1.63;;
51560;SDS011;37654;51.262;17.058;2023-04-25T02:10:28;4.32;;;1.50;;
51560;SDS011;37654;51.262;17.058;2023-04-25T02:12:53;2.10;;;1.40;;
51560;SDS011;37654;51.262;17.058;2023-04-25T02:15:19;2.10;;;1.30;;
51560;SDS011;37654;51.262;17.058;2023-04-25T02:17:44;3.72;;;1.70;;
51560;SDS011;37654;51.262;17.058;2023-04-25T02:20:10;2.38;;;1.52;;
51560;SDS011;37654;51.262;17.058;2023-04-25T02:22:36;2.97;;;1.52;;
51560;SDS011;37654;51.262;17.058;2023-04-25T02:25:01;1.85;;;1.40;;
51560;SDS011;37654;51.262;17.058;2023-04-25T02:27:29;2.72;;;1.27;;
51560;SDS011;37654;51.262;17.058;2023-04-25T02:29:56;2.63;;;1.55;;
51560;SDS011;37654;51.262;17.058;2023-04-25T02:32:21;3.45;;;1.45;;
51560;SDS011;37654;51.262;17.058;2023-04-25T02:34:47;6.18;;;2.03;;
51560;SDS011;37654;51.262;17.058;2023-04-25T02:37:13;1.98;;;1.30;;
51560;SDS011;37654;51.262;17.058;2023-04-25T02:39:38;2.03;;;1.48;;
51560;SDS011;37654;51.262;17.058;2023-04-25T02:42:04;4.85;;;2.13;;
51560;SDS011;37654;51.262;17.058;2023-04-25T02:44:29;5.53;;;2.05;;
51560;SDS011;37654;51.262;17.058;2023-04-25T02:46:55;6.43;;;1.58;;
51560;SDS011;37654;51.262;17.058;2023-04-25T02:49:20;3.78;;;2.30;;
51560;SDS011;37654;51.262;17.058;2023-04-25T02:51:45;4.20;;;2.30;;
51560;SDS011;37654;51.262;17.058;2023-04-25T02:54:11;5.25;;;2.40;;
51560;SDS011;37654;51.262;17.058;2023-04-25T02:56:36;6.20;;;2.10;;
51560;SDS011;37654;51.262;17.058;2023-04-25T02:59:02;2.78;;;2.00;;
51560;SDS011;37654;51.262;17.058;2023-04-25T03:01:27;5.35;;;2.03;;
51560;SDS011;37654;51.262;17.058;2023-04-25T03:03:52;3.15;;;1.92;;
51560;SDS011;37654;51.262;17.058;2023-04-25T03:06:18;3.15;;;1.90;;
51560;SDS011;37654;51.262;17.058;2023-04-25T03:08:43;3.05;;;2.05;;
51560;SDS011;37654;51.262;17.058;2023-04-25T03:11:09;5.07;;;2.42;;
51560;SDS011;37654;51.262;17.058;2023-04-25T03:13:34;3.42;;;2.20;;
51560;SDS011;37654;51.262;17.058;2023-04-25T03:16:00;5.28;;;3.15;;
51560;SDS011;37654;51.262;17.058;2023-04-25T03:18:25;5.78;;;3.35;;
51560;SDS011;37654;51.262;17.058;2023-04-25T03:20:51;4.78;;;2.95;;
51560;SDS011;37654;51.262;17.058;2023-04-25T03:23:16;6.93;;;2.80;;
51560;SDS011;37654;51.262;17.058;2023-04-25T03:25:42;5.38;;;3.08;;
51560;SDS011;37654;51.262;17.058;2023-04-25T03:28:07;3.95;;;2.53;;
51560;SDS011;37654;51.262;17.058;2023-04-25T03:30:33;5.95;;;2.65;;
51560;SDS011;37654;51.262;17.058;2023-04-25T03:32:58;5.07;;;3.05;;
51560;SDS011;37654;51.262;17.058;2023-04-25T03:35:24;5.57;;;3.40;;
51560;SDS011;37654;51.262;17.058;2023-04-25T03:37:49;6.32;;;3.33;;
51560;SDS011;37654;51.262;17.058;2023-04-25T03:40:15;5.22;;;3.60;;
51560;SDS011;37654;51.262;17.058;2023-04-25T03:42:40;6.95;;;3.40;;
51560;SDS011;37654;51.262;17.058;2023-04-25T03:45:06;6.40;;;3.15;;
51560;SDS011;37654;51.262;17.058;2023-04-25T03:47:34;7.18;;;3.45;;
51560;SDS011;37654;51.262;17.058;2023-04-25T03:49:59;5.05;;;2.78;;
51560;SDS011;37654;51.262;17.058;2023-04-25T03:52:26;4.95;;;2.80;;
51560;SDS011;37654;51.262;17.058;2023-04-25T03:54:52;6.00;;;3.70;;
51560;SDS011;37654;51.262;17.058;2023-04-25T03:57:17;5.07;;;3.20;;
51560;SDS011;37654;51.262;17.058;2023-04-25T03:59:43;8.77;;;3.72;;
51560;SDS011;37654;51.262;17.058;2023-04-25T04:02:09;6.50;;;3.42;;
51560;SDS011;37654;51.262;17.058;2023-04-25T04:04:34;7.00;;;3.53;;
51560;SDS011;37654;51.262;17.058;2023-04-25T04:07:00;11.35;;;3.92;;
51560;SDS011;37654;51.262;17.058;2023-04-25T04:09:25;4.95;;;3.40;;
51560;SDS011;37654;51.262;17.058;2023-04-25T04:11:52;8.85;;;3.80;;
51560;SDS011;37654;51.262;17.058;2023-04-25T04:14:18;6.63;;;3.40;;
51560;SDS011;37654;51.262;17.058;2023-04-25T04:16:43;6.53;;;3.65;;
51560;SDS011;37654;51.262;17.058;2023-04-25T04:19:08;5.22;;;2.80;;
51560;SDS011;37654;51.262;17.058;2023-04-25T04:21:34;6.38;;;3.70;;
51560;SDS011;37654;51.262;17.058;2023-04-25T04:23:59;10.18;;;3.75;;
51560;SDS011;37654;51.262;17.058;2023-04-25T04:26:25;10.00;;;3.50;;
51560;SDS011;37654;51.262;17.058;2023-04-25T04:28:51;8.93;;;3.50;;
51560;SDS011;37654;51.262;17.058;2023-04-25T04:31:19;8.95;;;3.75;;
51560;SDS011;37654;51.262;17.058;2023-04-25T04:33:48;6.13;;;3.47;;
51560;SDS011;37654;51.262;17.058;2023-04-25T04:36:14;8.75;;;4.35;;
51560;SDS011;37654;51.262;17.058;2023-04-25T04:38:40;6.13;;;3.58;;
51560;SDS011;37654;51.262;17.058;2023-04-25T04:41:07;7.03;;;3.85;;
51560;SDS011;37654;51.262;17.058;2023-04-25T04:43:33;5.47;;;3.13;;
51560;SDS011;37654;51.262;17.058;2023-04-25T04:46:01;6.38;;;4.22;;
51560;SDS011;37654;51.262;17.058;2023-04-25T04:48:28;6.78;;;3.80;;
51560;SDS011;37654;51.262;17.058;2023-04-25T04:50:53;5.78;;;3.90;;
51560;SDS011;37654;51.262;17.058;2023-04-25T04:53:19;8.80;;;3.70;;
51560;SDS011;37654;51.262;17.058;2023-04-25T04:55:44;9.40;;;4.43;;
51560;SDS011;37654;51.262;17.058;2023-04-25T04:58:11;9.77;;;5.65;;
51560;SDS011;37654;51.262;17.058;2023-04-25T05:00:36;7.43;;;4.55;;
51560;SDS011;37654;51.262;17.058;2023-04-25T05:03:03;9.32;;;4.47;;
51560;SDS011;37654;51.262;17.058;2023-04-25T05:05:30;8.70;;;4.00;;
51560;SDS011;37654;51.262;17.058;2023-04-25T05:07:55;12.77;;;4.35;;
51560;SDS011;37654;51.262;17.058;2023-04-25T05:10:21;6.97;;;3.60;;
51560;SDS011;37654;51.262;17.058;2023-04-25T05:12:47;5.60;;;3.15;;
51560;SDS011;37654;51.262;17.058;2023-04-25T05:15:13;16.23;;;4.20;;
51560;SDS011;37654;51.262;17.058;2023-04-25T05:17:39;12.38;;;5.70;;
51560;SDS011;37654;51.262;17.058;2023-04-25T05:20:05;5.30;;;3.53;;
51560;SDS011;37654;51.262;17.058;2023-04-25T05:22:32;4.97;;;3.30;;
51560;SDS011;37654;51.262;17.058;2023-04-25T05:24:58;6.03;;;3.92;;
51560;SDS011;37654;51.262;17.058;2023-04-25T05:27:23;6.88;;;3.72;;
51560;SDS011;37654;51.262;17.058;2023-04-25T05:29:49;6.75;;;3.38;;
51560;SDS011;37654;51.262;17.058;2023-04-25T05:32:14;7.00;;;4.18;;
51560;SDS011;37654;51.262;17.058;2023-04-25T05:34:39;12.48;;;4.13;;
51560;SDS011;37654;51.262;17.058;2023-04-25T05:37:05;10.13;;;3.53;;
51560;SDS011;37654;51.262;17.058;2023-04-25T05:39:31;7.07;;;3.47;;
51560;SDS011;37654;51.262;17.058;2023-04-25T05:41:56;12.48;;;4.72;;
51560;SDS011;37654;51.262;17.058;2023-04-25T05:44:22;10.82;;;4.32;;
51560;SDS011;37654;51.262;17.058;2023-04-25T05:46:47;6.03;;;3.97;;
51560;SDS011;37654;51.262;17.058;2023-04-25T05:49:13;9.70;;;4.13;;
51560;SDS011;37654;51.262;17.058;2023-04-25T05:51:38;5.72;;;3.65;;
51560;SDS011;37654;51.262;17.058;2023-04-25T05:54:03;7.90;;;4.18;;
51560;SDS011;37654;51.262;17.058;2023-04-25T05:56:29;6.70;;;4.30;;
51560;SDS011;37654;51.262;17.058;2023-04-25T05:58:54;8.32;;;4.10;;
51560;SDS011;37654;51.262;17.058;2023-04-25T06:01:21;6.80;;;3.92;;
51560;SDS011;37654;51.262;17.058;2023-04-25T06:03:47;5.95;;;3.40;;
51560;SDS011;37654;51.262;17.058;2023-04-25T06:06:13;7.13;;;3.35;;
51560;SDS011;37654;51.262;17.058;2023-04-25T06:08:38;6.40;;;3.35;;
51560;SDS011;37654;51.262;17.058;2023-04-25T06:11:04;7.72;;;3.33;;
51560;SDS011;37654;51.262;17.058;2023-04-25T06:13:29;13.70;;;3.92;;
51560;SDS011;37654;51.262;17.058;2023-04-25T06:15:55;6.30;;;3.17;;
51560;SDS011;37654;51.262;17.058;2023-04-25T06:18:20;6.32;;;3.35;;
51560;SDS011;37654;51.262;17.058;2023-04-25T06:20:46;7.60;;;3.40;;
51560;SDS011;37654;51.262;17.058;2023-04-25T06:23:11;9.10;;;3.72;;
51560;SDS011;37654;51.262;17.058;2023-04-25T06:25:37;5.30;;;2.85;;
51560;SDS011;37654;51.262;17.058;2023-04-25T06:28:02;5.43;;;3.13;;
51560;SDS011;37654;51.262;17.058;2023-04-25T06:30:28;6.05;;;3.13;;
51560;SDS011;37654;51.262;17.058;2023-04-25T06:32:53;4.32;;;2.72;;
51560;SDS011;37654;51.262;17.058;2023-04-25T06:35:19;5.00;;;2.67;;
51560;SDS011;37654;51.262;17.058;2023-04-25T06:37:45;8.77;;;2.95;;
51560;SDS011;37654;51.262;17.058;2023-04-25T06:40:11;6.63;;;3.00;;
51560;SDS011;37654;51.262;17.058;2023-04-25T06:42:38;5.85;;;3.17;;
51560;SDS011;37654;51.262;17.058;2023-04-25T06:45:03;9.95;;;3.30;;
51560;SDS011;37654;51.262;17.058;2023-04-25T06:47:29;5.32;;;2.30;;
51560;SDS011;37654;51.262;17.058;2023-04-25T06:49:55;9.05;;;2.65;;
51560;SDS011;37654;51.262;17.058;2023-04-25T06:52:20;6.60;;;2.22;;
51560;SDS011;37654;51.262;17.058;2023-04-25T06:54:46;7.25;;;2.60;;
51560;SDS011;37654;51.262;17.058;2023-04-25T06:57:11;8.38;;;2.60;;
51560;SDS011;37654;51.262;17.058;2023-04-25T06:59:37;4.65;;;2.45;;
51560;SDS011;37654;51.262;17.058;2023-04-25T07:02:02;3.08;;;1.88;;
51560;SDS011;37654;51.262;17.058;2023-04-25T07:04:28;4.35;;;2.25;;
51560;SDS011;37654;51.262;17.058;2023-04-25T07:06:54;4.28;;;2.42;;
51560;SDS011;37654;51.262;17.058;2023-04-25T07:09:20;4.22;;;2.05;;
51560;SDS011;37654;51.262;17.058;2023-04-25T07:11:45;5.03;;;2.00;;
51560;SDS011;37654;51.262;17.058;2023-04-25T07:14:11;4.80;;;2.33;;
51560;SDS011;37654;51.262;17.058;2023-04-25T07:16:36;3.88;;;2.38;;
51560;SDS011;37654;51.262;17.058;2023-04-25T07:19:02;6.13;;;2.10;;
51560;SDS011;37654;51.262;17.058;2023-04-25T07:21:27;6.25;;;2.63;;
51560;SDS011;37654;51.262;17.058;2023-04-25T07:23:53;6.72;;;2.10;;
51560;SDS011;37654;51.262;17.058;2023-04-25T07:26:18;6.55;;;2.50;;
51560;SDS011;37654;51.262;17.058;2023-04-25T07:28:44;5.75;;;2.42;;
51560;SDS011;37654;51.262;17.058;2023-04-25T07:31:09;8.20;;;2.60;;
51560;SDS011;37654;51.262;17.058;2023-04-25T07:33:35;6.22;;;2.30;;
51560;SDS011;37654;51.262;17.058;2023-04-25T07:36:00;5.63;;;2.17;;
51560;SDS011;37654;51.262;17.058;2023-04-25T07:38:26;6.38;;;2.70;;
51560;SDS011;37654;51.262;17.058;2023-04-25T07:40:51;4.40;;;2.28;;
51560;SDS011;37654;51.262;17.058;2023-04-25T07:43:17;4.00;;;2.38;;
51560;SDS011;37654;51.262;17.058;2023-04-25T07:45:43;7.38;;;2.35;;
51560;SDS011;37654;51.262;17.058;2023-04-25T07:48:09;6.03;;;2.28;;
51560;SDS011;37654;51.262;17.058;2023-04-25T07:50:35;6.82;;;2.45;;
51560;SDS011;37654;51.262;17.058;2023-04-25T07:53:01;5.35;;;2.00;;
51560;SDS011;37654;51.262;17.058;2023-04-25T07:55:27;6.00;;;2.20;;
51560;SDS011;37654;51.262;17.058;2023-04-25T07:57:53;7.35;;;2.20;;
51560;SDS011;37654;51.262;17.058;2023-04-25T08:00:18;5.40;;;2.25;;
51560;SDS011;37654;51.262;17.058;2023-04-25T08:02:44;8.43;;;2.35;;
51560;SDS011;37654;51.262;17.058;2023-04-25T08:05:10;7.35;;;2.40;;
51560;SDS011;37654;51.262;17.058;2023-04-25T08:07:39;5.53;;;2.22;;
51560;SDS011;37654;51.262;17.058;2023-04-25T08:10:06;7.97;;;1.67;;
51560;SDS011;37654;51.262;17.058;2023-04-25T08:12:32;5.93;;;2.30;;
51560;SDS011;37654;51.262;17.058;2023-04-25T08:14:57;4.82;;;2.22;;
51560;SDS011;37654;51.262;17.058;2023-04-25T08:17:23;6.10;;;2.45;;
51560;SDS011;37654;51.262;17.058;2023-04-25T08:19:48;4.72;;;2.38;;
51560;SDS011;37654;51.262;17.058;2023-04-25T08:22:14;8.85;;;3.30;;
51560;SDS011;37654;51.262;17.058;2023-04-25T08:24:40;6.85;;;2.85;;
51560;SDS011;37654;51.262;17.058;2023-04-25T08:27:06;6.47;;;2.78;;
51560;SDS011;37654;51.262;17.058;2023-04-25T08:29:32;7.00;;;2.63;;
51560;SDS011;37654;51.262;17.058;2023-04-25T08:31:58;7.70;;;2.80;;
51560;SDS011;37654;51.262;17.058;2023-04-25T08:34:24;6.35;;;3.17;;
51560;SDS011;37654;51.262;17.058;2023-04-25T08:36:50;5.80;;;2.95;;
51560;SDS011;37654;51.262;17.058;2023-04-25T08:39:16;9.02;;;3.00;;
51560;SDS011;37654;51.262;17.058;2023-04-25T08:41:41;7.18;;;3.15;;
51560;SDS011;37654;51.262;17.058;2023-04-25T08:44:08;5.40;;;3.40;;
51560;SDS011;37654;51.262;17.058;2023-04-25T08:46:35;6.00;;;3.92;;
51560;SDS011;37654;51.262;17.058;2023-04-25T08:49:03;9.15;;;4.85;;
51560;SDS011;37654;51.262;17.058;2023-04-25T08:51:30;7.78;;;4.05;;
51560;SDS011;37654;51.262;17.058;2023-04-25T08:53:57;9.50;;;4.65;;
51560;SDS011;37654;51.262;17.058;2023-04-25T08:56:40;6.03;;;3.80;;
51560;SDS011;37654;51.262;17.058;2023-04-25T08:59:09;10.60;;;4.65;;
51560;SDS011;37654;51.262;17.058;2023-04-25T09:01:35;5.60;;;3.58;;
51560;SDS011;37654;51.262;17.058;2023-04-25T09:04:01;7.38;;;3.42;;
51560;SDS011;37654;51.262;17.058;2023-04-25T09:06:28;6.97;;;3.90;;
51560;SDS011;37654;51.262;17.058;2023-04-25T09:09:00;9.13;;;3.97;;
51560;SDS011;37654;51.262;17.058;2023-04-25T09:11:30;8.10;;;3.80;;
51560;SDS011;37654;51.262;17.058;2023-04-25T09:19:25;6.55;;;3.67;;
51560;SDS011;37654;51.262;17.058;2023-04-25T09:21:56;5.40;;;2.97;;
51560;SDS011;37654;51.262;17.058;2023-04-25T09:24:30;6.68;;;3.58;;
51560;SDS011;37654;51.262;17.058;2023-04-25T09:27:07;7.43;;;4.85;;
51560;SDS011;37654;51.262;17.058;2023-04-25T09:29:35;5.22;;;3.60;;
51560;SDS011;37654;51.262;17.058;2023-04-25T09:32:14;6.22;;;2.50;;
51560;SDS011;37654;51.262;17.058;2023-04-25T09:34:40;6.07;;;3.13;;
51560;SDS011;37654;51.262;17.058;2023-04-25T09:37:33;12.18;;;6.75;;
51560;SDS011;37654;51.262;17.058;2023-04-25T09:39:59;7.90;;;3.25;;
51560;SDS011;37654;51.262;17.058;2023-04-25T09:42:28;5.32;;;2.67;;
51560;SDS011;37654;51.262;17.058;2023-04-25T09:44:56;7.03;;;3.08;;
51560;SDS011;37654;51.262;17.058;2023-04-25T09:47:23;8.10;;;2.97;;
51560;SDS011;37654;51.262;17.058;2023-04-25T09:49:51;8.02;;;3.20;;
51560;SDS011;37654;51.262;17.058;2023-04-25T09:52:23;6.05;;;2.25;;
51560;SDS011;37654;51.262;17.058;2023-04-25T09:54:50;5.57;;;2.85;;
51560;SDS011;37654;51.262;17.058;2023-04-25T09:57:20;4.93;;;2.45;;
51560;SDS011;37654;51.262;17.058;2023-04-25T09:59:50;5.63;;;2.83;;
51560;SDS011;37654;51.262;17.058;2023-04-25T10:02:23;8.05;;;2.67;;
51560;SDS011;37654;51.262;17.058;2023-04-25T10:04:51;6.00;;;2.83;;
51560;SDS011;37654;51.262;17.058;2023-04-25T10:07:19;8.02;;;3.13;;
51560;SDS011;37654;51.262;17.058;2023-04-25T10:09:48;4.75;;;2.20;;
51560;SDS011;37654;51.262;17.058;2023-04-25T10:12:17;5.50;;;2.45;;
51560;SDS011;37654;51.262;17.058;2023-04-25T10:14:43;5.97;;;2.58;;
51560;SDS011;37654;51.262;17.058;2023-04-25T10:17:09;4.80;;;2.22;;
51560;SDS011;37654;51.262;17.058;2023-04-25T10:19:36;4.78;;;2.47;;
51560;SDS011;37654;51.262;17.058;2023-04-25T10:22:11;8.20;;;2.45;;
51560;SDS011;37654;51.262;17.058;2023-04-25T10:24:42;5.10;;;2.72;;
51560;SDS011;37654;51.262;17.058;2023-04-25T10:27:09;10.15;;;3.35;;
51560;SDS011;37654;51.262;17.058;2023-04-25T10:29:36;6.93;;;2.47;;
51560;SDS011;37654;51.262;17.058;2023-04-25T10:32:01;7.90;;;2.42;;
51560;SDS011;37654;51.262;17.058;2023-04-25T10:37:08;3.35;;;1.73;;
51560;SDS011;37654;51.262;17.058;2023-04-25T10:39:35;8.35;;;2.38;;
51560;SDS011;37654;51.262;17.058;2023-04-25T10:42:04;4.05;;;1.85;;
51560;SDS011;37654;51.262;17.058;2023-04-25T10:44:31;18.30;;;5.80;;
51560;SDS011;37654;51.262;17.058;2023-04-25T10:46:57;3.15;;;1.50;;
51560;SDS011;37654;51.262;17.058;2023-04-25T10:49:31;7.47;;;2.65;;
51560;SDS011;37654;51.262;17.058;2023-04-25T10:54:48;27.75;;;8.50;;
51560;SDS011;37654;51.262;17.058;2023-04-25T11:00:13;11.20;;;3.10;;
51560;SDS011;37654;51.262;17.058;2023-04-25T11:02:44;5.78;;;2.08;;
51560;SDS011;37654;51.262;17.058;2023-04-25T11:05:19;5.18;;;2.58;;
51560;SDS011;37654;51.262;17.058;2023-04-25T11:07:59;12.77;;;5.30;;
51560;SDS011;37654;51.262;17.058;2023-04-25T11:10:32;4.00;;;1.50;;
51560;SDS011;37654;51.262;17.058;2023-04-25T11:13:00;4.77;;;2.07;;
51560;SDS011;37654;51.262;17.058;2023-04-25T11:15:26;1.95;;;1.55;;
51560;SDS011;37654;51.262;17.058;2023-04-25T11:17:52;9.45;;;1.10;;
51560;SDS011;37654;51.262;17.058;2023-04-25T11:20:18;6.03;;;1.80;;
51560;SDS011;37654;51.262;17.058;2023-04-25T11:22:44;2.83;;;1.63;;
51560;SDS011;37654;51.262;17.058;2023-04-25T11:25:12;2.95;;;1.40;;
51560;SDS011;37654;51.262;17.058;2023-04-25T11:28:00;4.70;;;1.10;;
51560;SDS011;37654;51.262;17.058;2023-04-25T11:30:26;3.28;;;1.27;;
51560;SDS011;37654;51.262;17.058;2023-04-25T11:32:52;3.60;;;1.30;;
51560;SDS011;37654;51.262;17.058;2023-04-25T11:35:20;4.43;;;1.77;;
51560;SDS011;37654;51.262;17.058;2023-04-25T11:37:48;3.70;;;0.93;;
51560;SDS011;37654;51.262;17.058;2023-04-25T11:40:14;3.63;;;1.17;;
51560;SDS011;37654;51.262;17.058;2023-04-25T11:42:43;3.33;;;1.23;;
51560;SDS011;37654;51.262;17.058;2023-04-25T11:45:11;4.15;;;1.40;;
51560;SDS011;37654;51.262;17.058;2023-04-25T11:47:37;3.50;;;1.42;;
51560;SDS011;37654;51.262;17.058;2023-04-25T11:50:03;3.70;;;1.38;;
51560;SDS011;37654;51.262;17.058;2023-04-25T11:52:41;4.70;;;1.13;;
51560;SDS011;37654;51.262;17.058;2023-04-25T11:55:08;8.90;;;1.35;;
51560;SDS011;37654;51.262;17.058;2023-04-25T11:57:35;2.97;;;1.35;;
51560;SDS011;37654;51.262;17.058;2023-04-25T12:00:09;5.20;;;1.20;;
51560;SDS011;37654;51.262;17.058;2023-04-25T12:02:36;1.88;;;1.50;;
51560;SDS011;37654;51.262;17.058;2023-04-25T12:05:02;6.38;;;1.30;;
51560;SDS011;37654;51.262;17.058;2023-04-25T12:07:31;2.22;;;1.17;;
51560;SDS011;37654;51.262;17.058;2023-04-25T12:09:57;2.67;;;1.30;;
51560;SDS011;37654;51.262;17.058;2023-04-25T12:12:26;2.42;;;1.38;;
51560;SDS011;37654;51.262;17.058;2023-04-25T12:14:52;5.22;;;1.45;;
51560;SDS011;37654;51.262;17.058;2023-04-25T12:17:21;2.67;;;1.45;;
51560;SDS011;37654;51.262;17.058;2023-04-25T12:19:47;4.75;;;1.77;;
51560;SDS011;37654;51.262;17.058;2023-04-25T12:22:23;2.60;;;1.50;;
51560;SDS011;37654;51.262;17.058;2023-04-25T12:24:49;4.30;;;1.25;;
51560;SDS011;37654;51.262;17.058;2023-04-25T12:27:15;3.15;;;1.15;;
51560;SDS011;37654;51.262;17.058;2023-04-25T12:29:49;5.18;;;1.50;;
51560;SDS011;37654;51.262;17.058;2023-04-25T12:32:16;1.77;;;0.93;;
51560;SDS011;37654;51.262;17.058;2023-04-25T12:34:42;4.00;;;1.30;;
51560;SDS011;37654;51.262;17.058;2023-04-25T12:37:08;2.03;;;1.00;;
51560;SDS011;37654;51.262;17.058;2023-04-25T12:39:34;5.50;;;1.80;;
51560;SDS011;37654;51.262;17.058;2023-04-25T12:42:00;3.45;;;1.63;;
51560;SDS011;37654;51.262;17.058;2023-04-25T12:44:26;5.97;;;1.52;;
51560;SDS011;37654;51.262;17.058;2023-04-25T12:46:51;2.55;;;1.30;;
51560;SDS011;37654;51.262;17.058;2023-04-25T12:49:17;3.35;;;1.65;;
51560;SDS011;37654;51.262;17.058;2023-04-25T12:51:43;2.00;;;1.50;;
51560;SDS011;37654;51.262;17.058;2023-04-25T12:54:09;5.03;;;1.30;;
51560;SDS011;37654;51.262;17.058;2023-04-25T12:56:35;5.07;;;1.50;;
51560;SDS011;37654;51.262;17.058;2023-04-25T12:59:01;2.70;;;1.60;;
51560;SDS011;37654;51.262;17.058;2023-04-25T13:01:28;3.65;;;1.20;;
51560;SDS011;37654;51.262;17.058;2023-04-25T13:03:54;3.10;;;1.33;;
51560;SDS011;37654;51.262;17.058;2023-04-25T13:06:19;3.28;;;1.52;;
51560;SDS011;37654;51.262;17.058;2023-04-25T13:08:45;3.17;;;1.25;;
51560;SDS011;37654;51.262;17.058;2023-04-25T13:11:11;5.63;;;1.50;;
51560;SDS011;37654;51.262;17.058;2023-04-25T13:13:37;4.57;;;1.50;;
51560;SDS011;37654;51.262;17.058;2023-04-25T13:16:05;3.05;;;1.60;;
51560;SDS011;37654;51.262;17.058;2023-04-25T13:18:31;5.63;;;3.05;;
51560;SDS011;37654;51.262;17.058;2023-04-25T13:20:57;4.43;;;2.08;;
51560;SDS011;37654;51.262;17.058;2023-04-25T13:23:24;6.43;;;1.70;;
51560;SDS011;37654;51.262;17.058;2023-04-25T13:25:51;4.20;;;1.50;;
51560;SDS011;37654;51.262;17.058;2023-04-25T13:28:17;3.72;;;1.50;;
51560;SDS011;37654;51.262;17.058;2023-04-25T13:30:43;4.25;;;1.90;;
51560;SDS011;37654;51.262;17.058;2023-04-25T13:33:08;9.18;;;1.60;;
51560;SDS011;37654;51.262;17.058;2023-04-25T13:35:36;5.65;;;1.58;;
51560;SDS011;37654;51.262;17.058;2023-04-25T13:38:02;3.97;;;1.67;;
51560;SDS011;37654;51.262;17.058;2023-04-25T13:40:28;2.55;;;1.17;;
51560;SDS011;37654;51.262;17.058;2023-04-25T13:42:54;4.60;;;1.38;;
51560;SDS011;37654;51.262;17.058;2023-04-25T13:45:20;5.20;;;1.63;;
51560;SDS011;37654;51.262;17.058;2023-04-25T13:47:46;8.63;;;1.80;;
51560;SDS011;37654;51.262;17.058;2023-04-25T13:50:11;2.20;;;1.45;;
51560;SDS011;37654;51.262;17.058;2023-04-25T13:52:38;3.40;;;1.73;;
51560;SDS011;37654;51.262;17.058;2023-04-25T13:55:05;4.68;;;1.42;;
51560;SDS011;37654;51.262;17.058;2023-04-25T13:57:32;3.75;;;1.45;;
51560;SDS011;37654;51.262;17.058;2023-04-25T13:59:58;2.95;;;1.77;;
51560;SDS011;37654;51.262;17.058;2023-04-25T14:02:24;2.55;;;1.60;;
51560;SDS011;37654;51.262;17.058;2023-04-25T14:04:51;4.90;;;2.30;;
51560;SDS011;37654;51.262;17.058;2023-04-25T14:07:16;3.22;;;1.30;;
51560;SDS011;37654;51.262;17.058;2023-04-25T14:09:44;4.75;;;1.70;;
51560;SDS011;37654;51.262;17.058;2023-04-25T14:12:09;5.47;;;2.47;;
51560;SDS011;37654;51.262;17.058;2023-04-25T14:14:36;4.20;;;1.42;;
51560;SDS011;37654;51.262;17.058;2023-04-25T14:17:02;3.63;;;1.50;;
51560;SDS011;37654;51.262;17.058;2023-04-25T14:19:28;4.60;;;1.73;;
51560;SDS011;37654;51.262;17.058;2023-04-25T14:21:54;5.13;;;1.45;;
51560;SDS011;37654;51.262;17.058;2023-04-25T14:24:19;6.30;;;1.65;;
51560;SDS011;37654;51.262;17.058;2023-04-25T14:26:45;5.75;;;1.77;;
51560;SDS011;37654;51.262;17.058;2023-04-25T14:29:11;4.20;;;1.83;;
51560;SDS011;37654;51.262;17.058;2023-04-25T14:31:37;3.30;;;1.52;;
51560;SDS011;37654;51.262;17.058;2023-04-25T14:34:03;5.82;;;2.03;;
51560;SDS011;37654;51.262;17.058;2023-04-25T14:36:29;4.57;;;1.65;;
51560;SDS011;37654;51.262;17.058;2023-04-25T14:38:56;9.35;;;2.30;;
51560;SDS011;37654;51.262;17.058;2023-04-25T14:41:22;4.10;;;1.85;;
51560;SDS011;37654;51.262;17.058;2023-04-25T14:43:48;7.85;;;2.00;;